sensor_id;sensor_type;location;lat;lon;timestamp;P1;durP1;ratioP1;P2;durP2;ratioP2
15383;SDS011;7790;53.022;12.968;2022-08-03T00:02:45;5.67;;;2.53;;
15383;SDS011;7790;53.022;12.968;2022-08-03T00:06:46;5.43;;;2.50;;
15383;SDS011;7790;53.022;12.968;2022-08-03T00:10:47;4.63;;;2.33;;
15383;SDS011;7790;53.022;12.968;2022-08-03T00:14:48;3.60;;;2.50;;
15383;SDS011;7790;53.022;12.968;2022-08-03T00:18:49;3.33;;;2.30;;
15383;SDS011;7790;53.022;12.968;2022-08-03T00:22:50;4.50;;;2.00;;
15383;SDS011;7790;53.022;12.968;2022-08-03T00:26:51;3.17;;;2.10;;
15383;SDS011;7790;53.022;12.968;2022-08-03T00:30:52;3.30;;;2.50;;
15383;SDS011;7790;53.022;12.968;2022-08-03T00:34:55;2.17;;;1.93;;
15383;SDS011;7790;53.022;12.968;2022-08-03T00:38:55;2.60;;;2.00;;
15383;SDS011;7790;53.022;12.968;2022-08-03T00:42:57;3.07;;;2.30;;
15383;SDS011;7790;53.022;12.968;2022-08-03T00:47:00;2.73;;;2.10;;
15383;SDS011;7790;53.022;12.968;2022-08-03T00:51:00;4.00;;;2.07;;
15383;SDS011;7790;53.022;12.968;2022-08-03T00:55:02;3.63;;;2.07;;
15383;SDS011;7790;53.022;12.968;2022-08-03T00:59:03;2.63;;;1.87;;
15383;SDS011;7790;53.022;12.968;2022-08-03T01:03:05;2.20;;;2.00;;
15383;SDS011;7790;53.022;12.968;2022-08-03T01:07:19;3.07;;;1.97;;
15383;SDS011;7790;53.022;12.968;2022-08-03T01:15:53;5.43;;;2.37;;
15383;SDS011;7790;53.022;12.968;2022-08-03T01:37:21;3.27;;;2.20;;
15383;SDS011;7790;53.022;12.968;2022-08-03T01:41:33;3.37;;;1.90;;
15383;SDS011;7790;53.022;12.968;2022-08-03T01:45:38;4.30;;;2.10;;
15383;SDS011;7790;53.022;12.968;2022-08-03T01:49:39;5.43;;;2.43;;
15383;SDS011;7790;53.022;12.968;2022-08-03T01:53:43;2.33;;;2.00;;
15383;SDS011;7790;53.022;12.968;2022-08-03T01:57:47;2.37;;;2.00;;
15383;SDS011;7790;53.022;12.968;2022-08-03T02:01:49;4.63;;;2.20;;
15383;SDS011;7790;53.022;12.968;2022-08-03T02:05:50;3.17;;;2.07;;
15383;SDS011;7790;53.022;12.968;2022-08-03T02:09:54;2.93;;;2.03;;
15383;SDS011;7790;53.022;12.968;2022-08-03T02:13:57;3.37;;;2.27;;
15383;SDS011;7790;53.022;12.968;2022-08-03T02:18:02;3.13;;;2.17;;
15383;SDS011;7790;53.022;12.968;2022-08-03T02:22:07;3.30;;;2.43;;
15383;SDS011;7790;53.022;12.968;2022-08-03T02:26:11;2.87;;;2.20;;
15383;SDS011;7790;53.022;12.968;2022-08-03T02:30:15;3.37;;;2.30;;
15383;SDS011;7790;53.022;12.968;2022-08-03T02:34:17;4.67;;;2.40;;
15383;SDS011;7790;53.022;12.968;2022-08-03T02:38:22;5.10;;;2.30;;
15383;SDS011;7790;53.022;12.968;2022-08-03T02:42:28;6.40;;;2.53;;
15383;SDS011;7790;53.022;12.968;2022-08-03T02:46:32;2.37;;;1.77;;
15383;SDS011;7790;53.022;12.968;2022-08-03T02:50:37;7.93;;;2.47;;
15383;SDS011;7790;53.022;12.968;2022-08-03T02:54:39;7.83;;;2.37;;
15383;SDS011;7790;53.022;12.968;2022-08-03T02:58:42;4.27;;;2.40;;
15383;SDS011;7790;53.022;12.968;2022-08-03T03:02:46;5.30;;;2.43;;
15383;SDS011;7790;53.022;12.968;2022-08-03T03:06:47;4.10;;;2.50;;
15383;SDS011;7790;53.022;12.968;2022-08-03T03:10:49;5.40;;;2.70;;
15383;SDS011;7790;53.022;12.968;2022-08-03T03:14:51;5.13;;;2.60;;
15383;SDS011;7790;53.022;12.968;2022-08-03T03:18:52;6.60;;;2.50;;
15383;SDS011;7790;53.022;12.968;2022-08-03T03:22:54;6.97;;;2.50;;
15383;SDS011;7790;53.022;12.968;2022-08-03T03:26:57;7.50;;;2.67;;
15383;SDS011;7790;53.022;12.968;2022-08-03T03:30:58;5.17;;;2.50;;
15383;SDS011;7790;53.022;12.968;2022-08-03T03:35:00;4.93;;;2.63;;
15383;SDS011;7790;53.022;12.968;2022-08-03T03:39:02;5.80;;;2.57;;
15383;SDS011;7790;53.022;12.968;2022-08-03T03:43:06;4.03;;;2.67;;
15383;SDS011;7790;53.022;12.968;2022-08-03T03:47:08;10.30;;;2.90;;
15383;SDS011;7790;53.022;12.968;2022-08-03T03:51:09;8.23;;;3.00;;
15383;SDS011;7790;53.022;12.968;2022-08-03T03:55:13;8.17;;;2.77;;
15383;SDS011;7790;53.022;12.968;2022-08-03T03:59:15;5.33;;;2.80;;
15383;SDS011;7790;53.022;12.968;2022-08-03T04:03:16;5.67;;;2.77;;
15383;SDS011;7790;53.022;12.968;2022-08-03T04:07:17;3.17;;;2.47;;
15383;SDS011;7790;53.022;12.968;2022-08-03T04:11:38;7.13;;;2.80;;
15383;SDS011;7790;53.022;12.968;2022-08-03T04:15:42;4.00;;;2.63;;
15383;SDS011;7790;53.022;12.968;2022-08-03T04:19:46;3.73;;;2.90;;
15383;SDS011;7790;53.022;12.968;2022-08-03T04:23:51;4.63;;;2.80;;
15383;SDS011;7790;53.022;12.968;2022-08-03T04:27:55;2.93;;;2.33;;
15383;SDS011;7790;53.022;12.968;2022-08-03T04:31:58;4.57;;;2.73;;
15383;SDS011;7790;53.022;12.968;2022-08-03T04:36:00;6.93;;;3.40;;
15383;SDS011;7790;53.022;12.968;2022-08-03T04:40:08;8.87;;;3.87;;
15383;SDS011;7790;53.022;12.968;2022-08-03T04:44:12;5.93;;;3.57;;
15383;SDS011;7790;53.022;12.968;2022-08-03T04:48:14;5.07;;;3.93;;
15383;SDS011;7790;53.022;12.968;2022-08-03T04:52:16;6.47;;;3.83;;
15383;SDS011;7790;53.022;12.968;2022-08-03T04:56:17;6.37;;;3.90;;
15383;SDS011;7790;53.022;12.968;2022-08-03T05:00:18;6.80;;;4.40;;
15383;SDS011;7790;53.022;12.968;2022-08-03T05:04:20;10.37;;;3.90;;
15383;SDS011;7790;53.022;12.968;2022-08-03T05:08:22;6.33;;;4.20;;
15383;SDS011;7790;53.022;12.968;2022-08-03T05:12:23;7.67;;;3.70;;
15383;SDS011;7790;53.022;12.968;2022-08-03T05:16:24;10.27;;;4.20;;
15383;SDS011;7790;53.022;12.968;2022-08-03T05:20:25;5.87;;;3.67;;
15383;SDS011;7790;53.022;12.968;2022-08-03T05:24:25;5.13;;;4.00;;
15383;SDS011;7790;53.022;12.968;2022-08-03T05:28:26;9.47;;;4.10;;
15383;SDS011;7790;53.022;12.968;2022-08-03T05:32:27;7.90;;;3.80;;
15383;SDS011;7790;53.022;12.968;2022-08-03T05:36:28;5.50;;;3.87;;
15383;SDS011;7790;53.022;12.968;2022-08-03T05:40:29;5.60;;;3.50;;
15383;SDS011;7790;53.022;12.968;2022-08-03T05:44:30;9.20;;;4.00;;
15383;SDS011;7790;53.022;12.968;2022-08-03T05:48:31;6.33;;;4.00;;
15383;SDS011;7790;53.022;12.968;2022-08-03T05:52:32;6.07;;;3.70;;
15383;SDS011;7790;53.022;12.968;2022-08-03T05:56:33;6.50;;;3.50;;
15383;SDS011;7790;53.022;12.968;2022-08-03T06:00:33;5.73;;;3.23;;
15383;SDS011;7790;53.022;12.968;2022-08-03T06:04:34;5.13;;;3.20;;
15383;SDS011;7790;53.022;12.968;2022-08-03T06:08:35;5.80;;;3.13;;
15383;SDS011;7790;53.022;12.968;2022-08-03T06:12:36;6.30;;;3.10;;
15383;SDS011;7790;53.022;12.968;2022-08-03T06:16:40;4.57;;;3.33;;
15383;SDS011;7790;53.022;12.968;2022-08-03T06:20:41;4.97;;;3.10;;
15383;SDS011;7790;53.022;12.968;2022-08-03T06:24:41;4.83;;;2.80;;
15383;SDS011;7790;53.022;12.968;2022-08-03T06:28:43;5.73;;;2.87;;
15383;SDS011;7790;53.022;12.968;2022-08-03T06:32:45;7.40;;;2.83;;
15383;SDS011;7790;53.022;12.968;2022-08-03T06:36:46;5.37;;;2.53;;
15383;SDS011;7790;53.022;12.968;2022-08-03T06:40:49;5.47;;;3.20;;
15383;SDS011;7790;53.022;12.968;2022-08-03T06:44:50;3.70;;;2.83;;
15383;SDS011;7790;53.022;12.968;2022-08-03T06:48:50;4.33;;;2.80;;
15383;SDS011;7790;53.022;12.968;2022-08-03T06:52:52;4.10;;;2.83;;
15383;SDS011;7790;53.022;12.968;2022-08-03T06:56:53;4.03;;;2.90;;
15383;SDS011;7790;53.022;12.968;2022-08-03T07:00:54;4.70;;;2.80;;
15383;SDS011;7790;53.022;12.968;2022-08-03T07:04:55;6.63;;;2.87;;
15383;SDS011;7790;53.022;12.968;2022-08-03T07:08:56;3.17;;;2.50;;
15383;SDS011;7790;53.022;12.968;2022-08-03T07:12:58;3.83;;;2.50;;
15383;SDS011;7790;53.022;12.968;2022-08-03T07:16:59;4.77;;;2.50;;
15383;SDS011;7790;53.022;12.968;2022-08-03T07:21:00;7.43;;;3.37;;
15383;SDS011;7790;53.022;12.968;2022-08-03T07:25:01;7.83;;;2.80;;
15383;SDS011;7790;53.022;12.968;2022-08-03T07:29:02;3.73;;;2.77;;
15383;SDS011;7790;53.022;12.968;2022-08-03T07:33:03;8.33;;;3.27;;
15383;SDS011;7790;53.022;12.968;2022-08-03T07:37:04;7.03;;;2.83;;
15383;SDS011;7790;53.022;12.968;2022-08-03T07:41:05;6.10;;;2.73;;
15383;SDS011;7790;53.022;12.968;2022-08-03T07:45:06;2.90;;;2.50;;
15383;SDS011;7790;53.022;12.968;2022-08-03T07:49:07;5.30;;;2.50;;
15383;SDS011;7790;53.022;12.968;2022-08-03T07:53:08;6.50;;;3.17;;
15383;SDS011;7790;53.022;12.968;2022-08-03T07:57:09;9.03;;;3.13;;
15383;SDS011;7790;53.022;12.968;2022-08-03T08:01:10;5.07;;;2.50;;
15383;SDS011;7790;53.022;12.968;2022-08-03T08:05:11;12.17;;;3.20;;
15383;SDS011;7790;53.022;12.968;2022-08-03T08:09:12;13.63;;;3.37;;
15383;SDS011;7790;53.022;12.968;2022-08-03T08:13:13;13.93;;;3.10;;
15383;SDS011;7790;53.022;12.968;2022-08-03T08:17:14;12.63;;;3.20;;
15383;SDS011;7790;53.022;12.968;2022-08-03T08:21:15;14.73;;;3.33;;
15383;SDS011;7790;53.022;12.968;2022-08-03T08:25:16;12.77;;;2.90;;
15383;SDS011;7790;53.022;12.968;2022-08-03T08:29:17;16.60;;;3.17;;
15383;SDS011;7790;53.022;12.968;2022-08-03T08:33:22;13.83;;;3.13;;
15383;SDS011;7790;53.022;12.968;2022-08-03T08:37:23;13.17;;;3.00;;
15383;SDS011;7790;53.022;12.968;2022-08-03T08:41:23;9.17;;;2.80;;
15383;SDS011;7790;53.022;12.968;2022-08-03T08:45:25;15.10;;;3.20;;
15383;SDS011;7790;53.022;12.968;2022-08-03T08:49:26;8.27;;;3.00;;
15383;SDS011;7790;53.022;12.968;2022-08-03T08:53:28;11.07;;;2.73;;
15383;SDS011;7790;53.022;12.968;2022-08-03T08:57:41;6.23;;;2.07;;
15383;SDS011;7790;53.022;12.968;2022-08-03T09:01:46;9.63;;;2.40;;
15383;SDS011;7790;53.022;12.968;2022-08-03T09:05:47;5.17;;;2.13;;
15383;SDS011;7790;53.022;12.968;2022-08-03T09:09:49;3.10;;;1.97;;
15383;SDS011;7790;53.022;12.968;2022-08-03T09:13:49;6.17;;;2.10;;
15383;SDS011;7790;53.022;12.968;2022-08-03T09:17:52;5.13;;;1.90;;
15383;SDS011;7790;53.022;12.968;2022-08-03T09:22:14;3.03;;;1.80;;
15383;SDS011;7790;53.022;12.968;2022-08-03T09:26:20;3.17;;;1.80;;
15383;SDS011;7790;53.022;12.968;2022-08-03T09:30:23;3.60;;;1.80;;
15383;SDS011;7790;53.022;12.968;2022-08-03T09:34:24;4.63;;;1.93;;
15383;SDS011;7790;53.022;12.968;2022-08-03T09:38:27;3.00;;;1.57;;
15383;SDS011;7790;53.022;12.968;2022-08-03T09:42:28;3.23;;;2.00;;
15383;SDS011;7790;53.022;12.968;2022-08-03T09:46:29;2.00;;;1.80;;
15383;SDS011;7790;53.022;12.968;2022-08-03T09:50:35;1.90;;;1.50;;
15383;SDS011;7790;53.022;12.968;2022-08-03T09:54:51;3.77;;;1.83;;
15383;SDS011;7790;53.022;12.968;2022-08-03T09:58:51;2.30;;;1.80;;
15383;SDS011;7790;53.022;12.968;2022-08-03T10:02:52;3.57;;;1.70;;
15383;SDS011;7790;53.022;12.968;2022-08-03T10:07:07;1.77;;;1.67;;
15383;SDS011;7790;53.022;12.968;2022-08-03T10:11:09;2.10;;;2.00;;
15383;SDS011;7790;53.022;12.968;2022-08-03T10:15:10;2.30;;;1.50;;
15383;SDS011;7790;53.022;12.968;2022-08-03T10:19:11;2.60;;;1.60;;
15383;SDS011;7790;53.022;12.968;2022-08-03T10:23:15;2.10;;;1.50;;
15383;SDS011;7790;53.022;12.968;2022-08-03T10:27:20;2.80;;;1.80;;
15383;SDS011;7790;53.022;12.968;2022-08-03T10:31:23;1.50;;;1.40;;
15383;SDS011;7790;53.022;12.968;2022-08-03T10:35:25;2.70;;;1.60;;
15383;SDS011;7790;53.022;12.968;2022-08-03T10:39:28;2.83;;;1.80;;
15383;SDS011;7790;53.022;12.968;2022-08-03T10:43:33;2.13;;;1.40;;
15383;SDS011;7790;53.022;12.968;2022-08-03T10:47:54;3.43;;;1.80;;
15383;SDS011;7790;53.022;12.968;2022-08-03T10:51:56;3.13;;;1.73;;
15383;SDS011;7790;53.022;12.968;2022-08-03T10:55:57;4.33;;;2.10;;
15383;SDS011;7790;53.022;12.968;2022-08-03T11:00:18;3.83;;;1.90;;
15383;SDS011;7790;53.022;12.968;2022-08-03T11:04:20;5.43;;;2.10;;
15383;SDS011;7790;53.022;12.968;2022-08-03T11:08:24;5.83;;;2.03;;
15383;SDS011;7790;53.022;12.968;2022-08-03T11:12:31;5.50;;;2.03;;
15383;SDS011;7790;53.022;12.968;2022-08-03T11:16:37;11.50;;;2.40;;
15383;SDS011;7790;53.022;12.968;2022-08-03T11:20:51;14.30;;;2.70;;
15383;SDS011;7790;53.022;12.968;2022-08-03T11:29:25;5.70;;;2.23;;
15383;SDS011;7790;53.022;12.968;2022-08-03T11:33:30;9.80;;;2.97;;
15383;SDS011;7790;53.022;12.968;2022-08-03T11:37:31;7.67;;;2.63;;
15383;SDS011;7790;53.022;12.968;2022-08-03T11:41:32;10.77;;;2.50;;
15383;SDS011;7790;53.022;12.968;2022-08-03T11:45:34;9.10;;;2.53;;
15383;SDS011;7790;53.022;12.968;2022-08-03T11:49:35;5.83;;;2.30;;
15383;SDS011;7790;53.022;12.968;2022-08-03T11:53:38;6.30;;;2.50;;
15383;SDS011;7790;53.022;12.968;2022-08-03T11:57:39;8.20;;;2.30;;
15383;SDS011;7790;53.022;12.968;2022-08-03T12:01:40;3.87;;;1.90;;
15383;SDS011;7790;53.022;12.968;2022-08-03T12:05:42;8.50;;;2.07;;
15383;SDS011;7790;53.022;12.968;2022-08-03T12:10:03;3.03;;;1.80;;
15383;SDS011;7790;53.022;12.968;2022-08-03T12:14:07;8.87;;;2.30;;
15383;SDS011;7790;53.022;12.968;2022-08-03T12:18:15;4.07;;;1.83;;
15383;SDS011;7790;53.022;12.968;2022-08-03T12:22:29;4.80;;;2.00;;
15383;SDS011;7790;53.022;12.968;2022-08-03T12:26:46;7.27;;;1.90;;
15383;SDS011;7790;53.022;12.968;2022-08-03T12:30:50;4.47;;;1.90;;
15383;SDS011;7790;53.022;12.968;2022-08-03T12:34:51;4.93;;;1.80;;
15383;SDS011;7790;53.022;12.968;2022-08-03T12:38:57;3.30;;;1.60;;
15383;SDS011;7790;53.022;12.968;2022-08-03T12:42:59;3.03;;;2.00;;
15383;SDS011;7790;53.022;12.968;2022-08-03T12:47:01;2.20;;;1.70;;
15383;SDS011;7790;53.022;12.968;2022-08-03T12:51:06;7.27;;;1.67;;
15383;SDS011;7790;53.022;12.968;2022-08-03T12:55:17;3.07;;;1.97;;
15383;SDS011;7790;53.022;12.968;2022-08-03T12:59:23;1.97;;;1.70;;
15383;SDS011;7790;53.022;12.968;2022-08-03T13:03:27;3.30;;;1.50;;
15383;SDS011;7790;53.022;12.968;2022-08-03T13:07:28;4.13;;;1.70;;
15383;SDS011;7790;53.022;12.968;2022-08-03T13:11:46;4.47;;;1.80;;
15383;SDS011;7790;53.022;12.968;2022-08-03T13:16:03;5.60;;;2.23;;
15383;SDS011;7790;53.022;12.968;2022-08-03T13:20:04;4.47;;;1.90;;
15383;SDS011;7790;53.022;12.968;2022-08-03T13:24:05;5.60;;;2.10;;
15383;SDS011;7790;53.022;12.968;2022-08-03T13:28:06;4.33;;;1.60;;
15383;SDS011;7790;53.022;12.968;2022-08-03T13:32:07;3.60;;;1.70;;
15383;SDS011;7790;53.022;12.968;2022-08-03T13:36:09;5.10;;;1.90;;
15383;SDS011;7790;53.022;12.968;2022-08-03T13:40:10;6.63;;;2.00;;
15383;SDS011;7790;53.022;12.968;2022-08-03T13:44:11;4.40;;;1.70;;
15383;SDS011;7790;53.022;12.968;2022-08-03T13:48:12;2.50;;;1.80;;
15383;SDS011;7790;53.022;12.968;2022-08-03T13:52:12;2.50;;;1.90;;
15383;SDS011;7790;53.022;12.968;2022-08-03T13:56:13;3.63;;;1.87;;
15383;SDS011;7790;53.022;12.968;2022-08-03T14:00:15;2.57;;;1.80;;
15383;SDS011;7790;53.022;12.968;2022-08-03T14:04:17;4.27;;;2.07;;
15383;SDS011;7790;53.022;12.968;2022-08-03T14:08:18;3.43;;;1.70;;
15383;SDS011;7790;53.022;12.968;2022-08-03T14:12:19;2.40;;;1.63;;
15383;SDS011;7790;53.022;12.968;2022-08-03T14:16:20;5.13;;;1.83;;
15383;SDS011;7790;53.022;12.968;2022-08-03T14:20:21;2.27;;;1.63;;
15383;SDS011;7790;53.022;12.968;2022-08-03T14:24:22;5.00;;;2.13;;
15383;SDS011;7790;53.022;12.968;2022-08-03T14:28:23;3.83;;;1.70;;
15383;SDS011;7790;53.022;12.968;2022-08-03T14:32:25;6.63;;;1.87;;
15383;SDS011;7790;53.022;12.968;2022-08-03T14:36:26;6.17;;;1.60;;
15383;SDS011;7790;53.022;12.968;2022-08-03T14:40:27;6.57;;;2.40;;
15383;SDS011;7790;53.022;12.968;2022-08-03T14:44:28;8.50;;;2.20;;
15383;SDS011;7790;53.022;12.968;2022-08-03T14:48:29;6.33;;;2.10;;
15383;SDS011;7790;53.022;12.968;2022-08-03T14:52:30;9.33;;;2.30;;
15383;SDS011;7790;53.022;12.968;2022-08-03T14:56:31;10.13;;;2.57;;
15383;SDS011;7790;53.022;12.968;2022-08-03T15:00:33;6.13;;;2.33;;
15383;SDS011;7790;53.022;12.968;2022-08-03T15:04:35;6.87;;;2.20;;
15383;SDS011;7790;53.022;12.968;2022-08-03T15:08:36;6.53;;;2.17;;
15383;SDS011;7790;53.022;12.968;2022-08-03T15:12:37;5.33;;;2.40;;
15383;SDS011;7790;53.022;12.968;2022-08-03T15:16:38;7.93;;;2.20;;
15383;SDS011;7790;53.022;12.968;2022-08-03T15:20:39;10.60;;;2.47;;
15383;SDS011;7790;53.022;12.968;2022-08-03T15:24:40;4.60;;;2.20;;
15383;SDS011;7790;53.022;12.968;2022-08-03T15:28:41;6.30;;;2.37;;
15383;SDS011;7790;53.022;12.968;2022-08-03T15:32:41;5.57;;;2.27;;
15383;SDS011;7790;53.022;12.968;2022-08-03T15:36:42;7.17;;;2.40;;
15383;SDS011;7790;53.022;12.968;2022-08-03T15:40:43;6.57;;;2.23;;
15383;SDS011;7790;53.022;12.968;2022-08-03T15:44:44;3.77;;;2.00;;
15383;SDS011;7790;53.022;12.968;2022-08-03T15:48:45;2.93;;;1.80;;
15383;SDS011;7790;53.022;12.968;2022-08-03T15:52:46;4.83;;;1.93;;
15383;SDS011;7790;53.022;12.968;2022-08-03T15:56:47;4.30;;;2.27;;
15383;SDS011;7790;53.022;12.968;2022-08-03T16:00:48;5.53;;;2.17;;
15383;SDS011;7790;53.022;12.968;2022-08-03T16:04:49;4.20;;;2.10;;
15383;SDS011;7790;53.022;12.968;2022-08-03T16:08:51;4.70;;;1.90;;
15383;SDS011;7790;53.022;12.968;2022-08-03T16:12:52;5.97;;;2.50;;
15383;SDS011;7790;53.022;12.968;2022-08-03T16:16:52;8.60;;;2.30;;
15383;SDS011;7790;53.022;12.968;2022-08-03T16:20:53;5.33;;;2.03;;
15383;SDS011;7790;53.022;12.968;2022-08-03T16:24:54;6.13;;;1.90;;
15383;SDS011;7790;53.022;12.968;2022-08-03T16:28:55;6.03;;;2.40;;
15383;SDS011;7790;53.022;12.968;2022-08-03T16:32:56;6.30;;;2.23;;
15383;SDS011;7790;53.022;12.968;2022-08-03T16:36:57;6.97;;;2.17;;
15383;SDS011;7790;53.022;12.968;2022-08-03T16:40:58;3.77;;;2.07;;
15383;SDS011;7790;53.022;12.968;2022-08-03T16:44:58;4.87;;;1.83;;
15383;SDS011;7790;53.022;12.968;2022-08-03T16:48:59;5.60;;;2.10;;
15383;SDS011;7790;53.022;12.968;2022-08-03T16:53:02;5.47;;;2.10;;
15383;SDS011;7790;53.022;12.968;2022-08-03T16:57:05;4.83;;;2.20;;
15383;SDS011;7790;53.022;12.968;2022-08-03T17:01:07;3.77;;;1.77;;
15383;SDS011;7790;53.022;12.968;2022-08-03T17:05:12;2.80;;;1.90;;
15383;SDS011;7790;53.022;12.968;2022-08-03T17:09:14;3.57;;;1.97;;
15383;SDS011;7790;53.022;12.968;2022-08-03T17:13:18;1.50;;;1.40;;
15383;SDS011;7790;53.022;12.968;2022-08-03T17:17:29;2.63;;;1.70;;
15383;SDS011;7790;53.022;12.968;2022-08-03T17:21:32;3.07;;;1.60;;
15383;SDS011;7790;53.022;12.968;2022-08-03T17:25:36;2.67;;;1.67;;
15383;SDS011;7790;53.022;12.968;2022-08-03T17:29:38;1.90;;;1.73;;
15383;SDS011;7790;53.022;12.968;2022-08-03T17:33:43;3.97;;;1.70;;
15383;SDS011;7790;53.022;12.968;2022-08-03T17:37:45;1.90;;;1.70;;
15383;SDS011;7790;53.022;12.968;2022-08-03T17:41:46;2.90;;;1.60;;
15383;SDS011;7790;53.022;12.968;2022-08-03T17:45:47;2.70;;;1.73;;
15383;SDS011;7790;53.022;12.968;2022-08-03T17:49:49;3.23;;;1.77;;
15383;SDS011;7790;53.022;12.968;2022-08-03T17:53:52;2.73;;;1.50;;
15383;SDS011;7790;53.022;12.968;2022-08-03T17:58:12;2.30;;;1.30;;
15383;SDS011;7790;53.022;12.968;2022-08-03T18:06:56;2.10;;;1.50;;
15383;SDS011;7790;53.022;12.968;2022-08-03T18:10:59;1.93;;;1.60;;
15383;SDS011;7790;53.022;12.968;2022-08-03T18:15:04;2.13;;;1.53;;
15383;SDS011;7790;53.022;12.968;2022-08-03T18:19:06;1.87;;;1.50;;
15383;SDS011;7790;53.022;12.968;2022-08-03T18:23:09;1.50;;;1.30;;
15383;SDS011;7790;53.022;12.968;2022-08-03T18:27:12;4.97;;;1.70;;
15383;SDS011;7790;53.022;12.968;2022-08-03T18:31:15;4.73;;;1.80;;
15383;SDS011;7790;53.022;12.968;2022-08-03T18:35:16;6.47;;;1.90;;
15383;SDS011;7790;53.022;12.968;2022-08-03T18:39:19;4.83;;;1.83;;
15383;SDS011;7790;53.022;12.968;2022-08-03T18:43:20;3.93;;;1.83;;
15383;SDS011;7790;53.022;12.968;2022-08-03T18:51:36;14.63;;;2.63;;
15383;SDS011;7790;53.022;12.968;2022-08-03T18:55:40;11.20;;;2.53;;
15383;SDS011;7790;53.022;12.968;2022-08-03T19:00:12;15.67;;;2.73;;
15383;SDS011;7790;53.022;12.968;2022-08-03T19:08:26;13.67;;;2.60;;
15383;SDS011;7790;53.022;12.968;2022-08-03T19:16:38;17.37;;;3.30;;
15383;SDS011;7790;53.022;12.968;2022-08-03T19:20:43;14.30;;;2.87;;
15383;SDS011;7790;53.022;12.968;2022-08-03T19:24:45;17.57;;;2.93;;
15383;SDS011;7790;53.022;12.968;2022-08-03T19:28:51;13.77;;;3.17;;
15383;SDS011;7790;53.022;12.968;2022-08-03T19:33:01;13.70;;;3.47;;
15383;SDS011;7790;53.022;12.968;2022-08-03T19:37:11;16.90;;;3.20;;
15383;SDS011;7790;53.022;12.968;2022-08-03T19:41:14;20.97;;;3.73;;
15383;SDS011;7790;53.022;12.968;2022-08-03T19:45:20;26.03;;;4.43;;
15383;SDS011;7790;53.022;12.968;2022-08-03T19:49:29;25.07;;;4.00;;
15383;SDS011;7790;53.022;12.968;2022-08-03T19:53:35;12.10;;;3.60;;
15383;SDS011;7790;53.022;12.968;2022-08-03T19:57:41;17.90;;;3.70;;
15383;SDS011;7790;53.022;12.968;2022-08-03T20:01:44;17.00;;;3.77;;
15383;SDS011;7790;53.022;12.968;2022-08-03T20:05:45;13.40;;;3.63;;
15383;SDS011;7790;53.022;12.968;2022-08-03T20:09:46;11.07;;;3.03;;
15383;SDS011;7790;53.022;12.968;2022-08-03T20:13:47;8.30;;;3.03;;
15383;SDS011;7790;53.022;12.968;2022-08-03T20:17:51;6.07;;;2.90;;
15383;SDS011;7790;53.022;12.968;2022-08-03T20:21:52;6.27;;;2.90;;
15383;SDS011;7790;53.022;12.968;2022-08-03T20:25:55;6.63;;;2.67;;
15383;SDS011;7790;53.022;12.968;2022-08-03T20:29:58;11.37;;;3.30;;
15383;SDS011;7790;53.022;12.968;2022-08-03T20:34:01;9.00;;;3.00;;
15383;SDS011;7790;53.022;12.968;2022-08-03T20:38:02;9.87;;;3.00;;
15383;SDS011;7790;53.022;12.968;2022-08-03T20:42:03;7.97;;;3.63;;
15383;SDS011;7790;53.022;12.968;2022-08-03T20:46:04;13.10;;;3.60;;
15383;SDS011;7790;53.022;12.968;2022-08-03T20:50:05;17.07;;;3.93;;
15383;SDS011;7790;53.022;12.968;2022-08-03T20:54:08;21.73;;;4.07;;
15383;SDS011;7790;53.022;12.968;2022-08-03T20:58:09;21.30;;;4.77;;
15383;SDS011;7790;53.022;12.968;2022-08-03T21:02:11;18.47;;;4.20;;
15383;SDS011;7790;53.022;12.968;2022-08-03T21:06:13;27.20;;;5.20;;
15383;SDS011;7790;53.022;12.968;2022-08-03T21:10:19;34.57;;;5.30;;
15383;SDS011;7790;53.022;12.968;2022-08-03T21:18:58;34.60;;;5.97;;
15383;SDS011;7790;53.022;12.968;2022-08-03T21:23:00;34.50;;;5.70;;
15383;SDS011;7790;53.022;12.968;2022-08-03T21:27:02;26.37;;;5.67;;
15383;SDS011;7790;53.022;12.968;2022-08-03T21:31:03;15.70;;;5.20;;
15383;SDS011;7790;53.022;12.968;2022-08-03T21:35:06;17.30;;;5.00;;
15383;SDS011;7790;53.022;12.968;2022-08-03T21:39:09;22.23;;;4.57;;
15383;SDS011;7790;53.022;12.968;2022-08-03T21:43:10;16.13;;;5.20;;
15383;SDS011;7790;53.022;12.968;2022-08-03T21:47:11;15.27;;;4.77;;
15383;SDS011;7790;53.022;12.968;2022-08-03T21:51:13;11.37;;;4.57;;
15383;SDS011;7790;53.022;12.968;2022-08-03T21:55:16;6.77;;;4.20;;
15383;SDS011;7790;53.022;12.968;2022-08-03T21:59:18;8.53;;;4.40;;
15383;SDS011;7790;53.022;12.968;2022-08-03T22:03:21;10.00;;;4.30;;
15383;SDS011;7790;53.022;12.968;2022-08-03T22:07:24;8.83;;;4.43;;
15383;SDS011;7790;53.022;12.968;2022-08-03T22:11:27;5.67;;;4.23;;
15383;SDS011;7790;53.022;12.968;2022-08-03T22:15:28;9.07;;;4.63;;
15383;SDS011;7790;53.022;12.968;2022-08-03T22:19:30;6.17;;;4.53;;
15383;SDS011;7790;53.022;12.968;2022-08-03T22:23:30;5.97;;;4.27;;
15383;SDS011;7790;53.022;12.968;2022-08-03T22:27:38;6.23;;;4.40;;
15383;SDS011;7790;53.022;12.968;2022-08-03T22:31:40;5.60;;;4.50;;
15383;SDS011;7790;53.022;12.968;2022-08-03T22:35:43;4.83;;;4.40;;
15383;SDS011;7790;53.022;12.968;2022-08-03T22:39:45;6.07;;;4.23;;
15383;SDS011;7790;53.022;12.968;2022-08-03T22:43:46;5.20;;;4.47;;
15383;SDS011;7790;53.022;12.968;2022-08-03T22:47:48;8.53;;;5.10;;
15383;SDS011;7790;53.022;12.968;2022-08-03T22:51:51;5.20;;;4.07;;
15383;SDS011;7790;53.022;12.968;2022-08-03T22:55:52;5.87;;;4.33;;
15383;SDS011;7790;53.022;12.968;2022-08-03T22:59:54;7.63;;;4.70;;
15383;SDS011;7790;53.022;12.968;2022-08-03T23:03:57;5.33;;;4.17;;
15383;SDS011;7790;53.022;12.968;2022-08-03T23:08:02;5.00;;;4.50;;
15383;SDS011;7790;53.022;12.968;2022-08-03T23:12:04;9.10;;;4.50;;
15383;SDS011;7790;53.022;12.968;2022-08-03T23:16:05;12.50;;;5.63;;
15383;SDS011;7790;53.022;12.968;2022-08-03T23:20:08;10.80;;;4.70;;
15383;SDS011;7790;53.022;12.968;2022-08-03T23:24:09;8.23;;;4.67;;
15383;SDS011;7790;53.022;12.968;2022-08-03T23:28:11;8.07;;;4.20;;
15383;SDS011;7790;53.022;12.968;2022-08-03T23:32:18;7.63;;;4.30;;
15383;SDS011;7790;53.022;12.968;2022-08-03T23:36:20;7.70;;;4.70;;
15383;SDS011;7790;53.022;12.968;2022-08-03T23:40:25;13.30;;;5.30;;
15383;SDS011;7790;53.022;12.968;2022-08-03T23:44:30;12.77;;;4.97;;
15383;SDS011;7790;53.022;12.968;2022-08-03T23:48:33;13.67;;;5.20;;
15383;SDS011;7790;53.022;12.968;2022-08-03T23:53:19;10.47;;;5.13;;
